sensor_id;sensor_type;location;lat;lon;timestamp;temperature;humidity
62809;DHT22;48848;39.002;-94.584;2023-05-02T00:01:06;21.50;30.80
62809;DHT22;48848;39.002;-94.584;2023-05-02T00:03:33;21.80;30.40
62809;DHT22;48848;39.002;-94.584;2023-05-02T00:05:59;21.80;31.10
62809;DHT22;48848;39.002;-94.584;2023-05-02T00:08:25;22.00;31.00
62809;DHT22;48848;39.002;-94.584;2023-05-02T00:10:51;21.90;31.00
62809;DHT22;48848;39.002;-94.584;2023-05-02T00:13:17;21.90;31.50
62809;DHT22;48848;39.002;-94.584;2023-05-02T00:15:43;22.00;31.10
62809;DHT22;48848;39.002;-94.584;2023-05-02T00:18:09;22.00;30.70
62809;DHT22;48848;39.002;-94.584;2023-05-02T00:20:35;22.00;30.90
62809;DHT22;48848;39.002;-94.584;2023-05-02T00:23:01;22.00;31.20
62809;DHT22;48848;39.002;-94.584;2023-05-02T00:25:26;21.90;30.60
62809;DHT22;48848;39.002;-94.584;2023-05-02T00:27:52;21.80;31.10
62809;DHT22;48848;39.002;-94.584;2023-05-02T00:30:19;21.80;31.40
62809;DHT22;48848;39.002;-94.584;2023-05-02T00:32:45;22.10;30.80
62809;DHT22;48848;39.002;-94.584;2023-05-02T00:35:11;22.00;31.50
62809;DHT22;48848;39.002;-94.584;2023-05-02T00:37:37;21.80;31.20
62809;DHT22;48848;39.002;-94.584;2023-05-02T00:40:03;22.00;31.80
62809;DHT22;48848;39.002;-94.584;2023-05-02T00:42:31;22.00;31.80
62809;DHT22;48848;39.002;-94.584;2023-05-02T00:44:59;22.00;31.60
62809;DHT22;48848;39.002;-94.584;2023-05-02T00:47:24;22.10;31.80
62809;DHT22;48848;39.002;-94.584;2023-05-02T00:49:50;22.10;32.20
62809;DHT22;48848;39.002;-94.584;2023-05-02T00:52:16;22.10;31.90
62809;DHT22;48848;39.002;-94.584;2023-05-02T00:54:43;22.20;32.10
62809;DHT22;48848;39.002;-94.584;2023-05-02T00:57:09;22.10;33.00
62809;DHT22;48848;39.002;-94.584;2023-05-02T00:59:35;22.20;31.90
62809;DHT22;48848;39.002;-94.584;2023-05-02T01:02:10;22.10;32.00
62809;DHT22;48848;39.002;-94.584;2023-05-02T01:07:34;22.30;32.30
62809;DHT22;48848;39.002;-94.584;2023-05-02T01:10:18;22.30;32.00
62809;DHT22;48848;39.002;-94.584;2023-05-02T01:13:08;22.20;32.00
62809;DHT22;48848;39.002;-94.584;2023-05-02T01:15:32;22.00;32.30
62809;DHT22;48848;39.002;-94.584;2023-05-02T01:18:00;22.10;32.40
62809;DHT22;48848;39.002;-94.584;2023-05-02T01:20:27;22.20;32.00
62809;DHT22;48848;39.002;-94.584;2023-05-02T01:22:55;22.30;31.80
62809;DHT22;48848;39.002;-94.584;2023-05-02T01:25:30;22.30;32.30
62809;DHT22;48848;39.002;-94.584;2023-05-02T01:30:33;22.10;32.50
62809;DHT22;48848;39.002;-94.584;2023-05-02T01:33:01;22.30;32.90
62809;DHT22;48848;39.002;-94.584;2023-05-02T01:35:27;22.10;32.90
62809;DHT22;48848;39.002;-94.584;2023-05-02T01:37:55;22.20;32.40
62809;DHT22;48848;39.002;-94.584;2023-05-02T01:40:22;22.20;32.50
62809;DHT22;48848;39.002;-94.584;2023-05-02T01:42:50;22.10;32.50
62809;DHT22;48848;39.002;-94.584;2023-05-02T01:45:17;21.90;32.80
62809;DHT22;48848;39.002;-94.584;2023-05-02T01:47:44;21.90;32.70
62809;DHT22;48848;39.002;-94.584;2023-05-02T01:50:11;21.80;32.60
62809;DHT22;48848;39.002;-94.584;2023-05-02T01:52:39;21.70;32.50
62809;DHT22;48848;39.002;-94.584;2023-05-02T01:55:07;21.70;33.20
62809;DHT22;48848;39.002;-94.584;2023-05-02T01:57:34;21.80;33.10
62809;DHT22;48848;39.002;-94.584;2023-05-02T02:00:00;21.70;33.10
62809;DHT22;48848;39.002;-94.584;2023-05-02T02:02:29;21.80;33.10
62809;DHT22;48848;39.002;-94.584;2023-05-02T02:04:55;21.80;33.30
62809;DHT22;48848;39.002;-94.584;2023-05-02T02:07:22;22.00;33.40
62809;DHT22;48848;39.002;-94.584;2023-05-02T02:09:48;22.10;33.30
62809;DHT22;48848;39.002;-94.584;2023-05-02T02:12:22;22.10;33.20
62809;DHT22;48848;39.002;-94.584;2023-05-02T02:14:50;22.30;32.80
62809;DHT22;48848;39.002;-94.584;2023-05-02T02:17:24;22.20;33.00
62809;DHT22;48848;39.002;-94.584;2023-05-02T02:19:53;22.30;33.20
62809;DHT22;48848;39.002;-94.584;2023-05-02T02:22:19;22.30;33.30
62809;DHT22;48848;39.002;-94.584;2023-05-02T02:24:46;22.20;33.60
62809;DHT22;48848;39.002;-94.584;2023-05-02T02:27:12;22.30;33.20
62809;DHT22;48848;39.002;-94.584;2023-05-02T02:29:38;22.20;33.70
62809;DHT22;48848;39.002;-94.584;2023-05-02T02:32:05;22.20;33.70
62809;DHT22;48848;39.002;-94.584;2023-05-02T02:34:31;22.20;33.60
62809;DHT22;48848;39.002;-94.584;2023-05-02T02:36:59;22.20;33.30
62809;DHT22;48848;39.002;-94.584;2023-05-02T02:44:39;22.10;32.90
62809;DHT22;48848;39.002;-94.584;2023-05-02T02:47:18;22.10;32.80
62809;DHT22;48848;39.002;-94.584;2023-05-02T02:49:47;22.10;33.60
62809;DHT22;48848;39.002;-94.584;2023-05-02T02:52:21;22.10;34.30
62809;DHT22;48848;39.002;-94.584;2023-05-02T02:55:00;22.10;34.00
62809;DHT22;48848;39.002;-94.584;2023-05-02T02:57:32;22.10;34.20
62809;DHT22;48848;39.002;-94.584;2023-05-02T03:02:35;22.20;33.70
62809;DHT22;48848;39.002;-94.584;2023-05-02T03:05:02;22.10;33.90
62809;DHT22;48848;39.002;-94.584;2023-05-02T03:07:29;22.00;33.60
62809;DHT22;48848;39.002;-94.584;2023-05-02T03:09:56;22.00;33.80
62809;DHT22;48848;39.002;-94.584;2023-05-02T03:12:22;22.00;33.70
62809;DHT22;48848;39.002;-94.584;2023-05-02T03:14:48;22.10;33.10
62809;DHT22;48848;39.002;-94.584;2023-05-02T03:17:14;22.10;32.70
62809;DHT22;48848;39.002;-94.584;2023-05-02T03:19:40;22.00;32.80
62809;DHT22;48848;39.002;-94.584;2023-05-02T03:22:06;21.90;32.70
62809;DHT22;48848;39.002;-94.584;2023-05-02T03:24:31;21.80;32.40
62809;DHT22;48848;39.002;-94.584;2023-05-02T03:26:57;21.80;32.20
62809;DHT22;48848;39.002;-94.584;2023-05-02T03:29:24;21.90;32.50
62809;DHT22;48848;39.002;-94.584;2023-05-02T03:31:51;22.00;32.50
62809;DHT22;48848;39.002;-94.584;2023-05-02T03:34:17;22.00;32.30
62809;DHT22;48848;39.002;-94.584;2023-05-02T03:36:44;22.00;32.30
62809;DHT22;48848;39.002;-94.584;2023-05-02T03:39:10;22.00;32.40
62809;DHT22;48848;39.002;-94.584;2023-05-02T03:41:36;22.00;32.10
62809;DHT22;48848;39.002;-94.584;2023-05-02T03:44:02;21.80;32.30
62809;DHT22;48848;39.002;-94.584;2023-05-02T03:46:29;21.80;32.40
62809;DHT22;48848;39.002;-94.584;2023-05-02T03:48:58;21.80;32.50
62809;DHT22;48848;39.002;-94.584;2023-05-02T03:51:23;21.80;32.10
62809;DHT22;48848;39.002;-94.584;2023-05-02T03:53:49;21.80;32.30
62809;DHT22;48848;39.002;-94.584;2023-05-02T03:56:18;21.70;32.30
62809;DHT22;48848;39.002;-94.584;2023-05-02T03:58:44;21.80;32.10
62809;DHT22;48848;39.002;-94.584;2023-05-02T04:01:14;21.70;32.30
62809;DHT22;48848;39.002;-94.584;2023-05-02T04:03:40;21.70;32.40
62809;DHT22;48848;39.002;-94.584;2023-05-02T04:06:07;21.70;31.90
62809;DHT22;48848;39.002;-94.584;2023-05-02T04:08:34;21.70;32.00
62809;DHT22;48848;39.002;-94.584;2023-05-02T04:11:01;21.70;31.80
62809;DHT22;48848;39.002;-94.584;2023-05-02T04:13:27;21.70;32.20
62809;DHT22;48848;39.002;-94.584;2023-05-02T04:15:53;21.60;32.50
62809;DHT22;48848;39.002;-94.584;2023-05-02T04:18:19;21.60;32.10
62809;DHT22;48848;39.002;-94.584;2023-05-02T04:20:45;21.60;31.80
62809;DHT22;48848;39.002;-94.584;2023-05-02T04:23:11;21.60;32.10
62809;DHT22;48848;39.002;-94.584;2023-05-02T04:25:37;21.50;32.10
62809;DHT22;48848;39.002;-94.584;2023-05-02T04:28:04;21.60;32.00
62809;DHT22;48848;39.002;-94.584;2023-05-02T04:30:31;21.60;31.80
62809;DHT22;48848;39.002;-94.584;2023-05-02T04:32:57;21.60;31.90
62809;DHT22;48848;39.002;-94.584;2023-05-02T04:35:23;21.70;32.10
62809;DHT22;48848;39.002;-94.584;2023-05-02T04:37:48;21.80;32.00
62809;DHT22;48848;39.002;-94.584;2023-05-02T04:40:14;21.80;32.00
62809;DHT22;48848;39.002;-94.584;2023-05-02T04:42:40;21.70;31.90
62809;DHT22;48848;39.002;-94.584;2023-05-02T04:45:06;21.70;31.90
62809;DHT22;48848;39.002;-94.584;2023-05-02T04:47:35;21.70;32.80
62809;DHT22;48848;39.002;-94.584;2023-05-02T04:50:01;21.70;31.70
62809;DHT22;48848;39.002;-94.584;2023-05-02T04:52:27;21.70;31.80
62809;DHT22;48848;39.002;-94.584;2023-05-02T04:54:53;21.70;31.90
62809;DHT22;48848;39.002;-94.584;2023-05-02T04:57:18;21.60;31.90
62809;DHT22;48848;39.002;-94.584;2023-05-02T04:59:47;21.50;32.00
62809;DHT22;48848;39.002;-94.584;2023-05-02T05:02:13;21.60;32.10
62809;DHT22;48848;39.002;-94.584;2023-05-02T05:04:39;21.50;32.40
62809;DHT22;48848;39.002;-94.584;2023-05-02T05:07:04;21.50;32.50
62809;DHT22;48848;39.002;-94.584;2023-05-02T05:09:30;21.40;32.20
62809;DHT22;48848;39.002;-94.584;2023-05-02T05:11:56;21.40;32.40
62809;DHT22;48848;39.002;-94.584;2023-05-02T05:14:22;21.50;33.20
62809;DHT22;48848;39.002;-94.584;2023-05-02T05:16:48;21.40;32.30
62809;DHT22;48848;39.002;-94.584;2023-05-02T05:19:14;21.30;32.50
62809;DHT22;48848;39.002;-94.584;2023-05-02T05:21:40;21.40;32.60
62809;DHT22;48848;39.002;-94.584;2023-05-02T05:24:06;21.30;32.60
62809;DHT22;48848;39.002;-94.584;2023-05-02T05:26:32;21.30;32.60
62809;DHT22;48848;39.002;-94.584;2023-05-02T05:28:58;21.30;32.60
62809;DHT22;48848;39.002;-94.584;2023-05-02T05:31:24;21.30;32.50
62809;DHT22;48848;39.002;-94.584;2023-05-02T05:33:50;21.30;32.60
62809;DHT22;48848;39.002;-94.584;2023-05-02T05:36:15;21.20;32.60
62809;DHT22;48848;39.002;-94.584;2023-05-02T05:38:42;21.20;32.60
62809;DHT22;48848;39.002;-94.584;2023-05-02T05:41:08;21.20;32.70
62809;DHT22;48848;39.002;-94.584;2023-05-02T05:43:34;21.20;32.80
62809;DHT22;48848;39.002;-94.584;2023-05-02T05:45:59;21.20;32.70
62809;DHT22;48848;39.002;-94.584;2023-05-02T05:48:25;21.20;32.90
62809;DHT22;48848;39.002;-94.584;2023-05-02T05:50:51;21.10;32.90
62809;DHT22;48848;39.002;-94.584;2023-05-02T05:53:17;21.00;32.80
62809;DHT22;48848;39.002;-94.584;2023-05-02T05:55:44;21.10;32.90
62809;DHT22;48848;39.002;-94.584;2023-05-02T05:58:10;21.10;32.90
62809;DHT22;48848;39.002;-94.584;2023-05-02T06:00:37;21.10;32.70
62809;DHT22;48848;39.002;-94.584;2023-05-02T06:03:03;21.10;32.70
62809;DHT22;48848;39.002;-94.584;2023-05-02T06:05:29;21.20;32.60
62809;DHT22;48848;39.002;-94.584;2023-05-02T06:07:55;21.30;32.60
62809;DHT22;48848;39.002;-94.584;2023-05-02T06:10:21;21.30;32.70
62809;DHT22;48848;39.002;-94.584;2023-05-02T06:12:47;21.20;32.70
62809;DHT22;48848;39.002;-94.584;2023-05-02T06:15:13;21.20;32.60
62809;DHT22;48848;39.002;-94.584;2023-05-02T06:17:39;21.20;32.60
62809;DHT22;48848;39.002;-94.584;2023-05-02T06:20:05;21.10;32.80
62809;DHT22;48848;39.002;-94.584;2023-05-02T06:22:31;21.10;32.80
62809;DHT22;48848;39.002;-94.584;2023-05-02T06:24:57;21.00;33.10
62809;DHT22;48848;39.002;-94.584;2023-05-02T06:27:23;21.00;32.90
62809;DHT22;48848;39.002;-94.584;2023-05-02T06:29:52;21.10;33.00
62809;DHT22;48848;39.002;-94.584;2023-05-02T06:32:18;21.10;33.00
62809;DHT22;48848;39.002;-94.584;2023-05-02T06:34:44;21.10;33.40
62809;DHT22;48848;39.002;-94.584;2023-05-02T06:37:11;21.10;33.30
62809;DHT22;48848;39.002;-94.584;2023-05-02T06:39:36;21.00;33.10
62809;DHT22;48848;39.002;-94.584;2023-05-02T06:42:02;20.90;33.20
62809;DHT22;48848;39.002;-94.584;2023-05-02T06:44:28;20.90;32.70
62809;DHT22;48848;39.002;-94.584;2023-05-02T06:46:54;20.90;33.30
62809;DHT22;48848;39.002;-94.584;2023-05-02T06:49:24;20.80;33.50
62809;DHT22;48848;39.002;-94.584;2023-05-02T06:51:50;20.80;33.60
62809;DHT22;48848;39.002;-94.584;2023-05-02T06:54:16;20.70;33.30
62809;DHT22;48848;39.002;-94.584;2023-05-02T06:56:42;20.80;33.80
62809;DHT22;48848;39.002;-94.584;2023-05-02T06:59:08;20.70;33.80
62809;DHT22;48848;39.002;-94.584;2023-05-02T07:01:34;20.60;33.30
62809;DHT22;48848;39.002;-94.584;2023-05-02T07:04:00;20.50;34.10
62809;DHT22;48848;39.002;-94.584;2023-05-02T07:06:30;20.40;34.10
62809;DHT22;48848;39.002;-94.584;2023-05-02T07:08:56;20.40;34.10
62809;DHT22;48848;39.002;-94.584;2023-05-02T07:11:22;20.50;34.30
62809;DHT22;48848;39.002;-94.584;2023-05-02T07:13:48;20.40;34.00
62809;DHT22;48848;39.002;-94.584;2023-05-02T07:16:14;20.50;35.30
62809;DHT22;48848;39.002;-94.584;2023-05-02T07:18:40;20.40;34.30
62809;DHT22;48848;39.002;-94.584;2023-05-02T07:21:06;20.40;34.40
62809;DHT22;48848;39.002;-94.584;2023-05-02T07:23:33;20.20;34.70
62809;DHT22;48848;39.002;-94.584;2023-05-02T07:25:59;20.30;34.00
62809;DHT22;48848;39.002;-94.584;2023-05-02T07:28:25;20.10;34.80
62809;DHT22;48848;39.002;-94.584;2023-05-02T07:30:50;20.00;35.10
62809;DHT22;48848;39.002;-94.584;2023-05-02T07:33:19;20.10;35.10
62809;DHT22;48848;39.002;-94.584;2023-05-02T07:35:45;20.10;35.00
62809;DHT22;48848;39.002;-94.584;2023-05-02T07:38:11;20.10;34.90
62809;DHT22;48848;39.002;-94.584;2023-05-02T07:40:38;20.00;34.90
62809;DHT22;48848;39.002;-94.584;2023-05-02T07:43:04;20.10;35.00
62809;DHT22;48848;39.002;-94.584;2023-05-02T07:45:30;20.00;34.90
62809;DHT22;48848;39.002;-94.584;2023-05-02T07:47:56;19.90;35.30
62809;DHT22;48848;39.002;-94.584;2023-05-02T07:50:22;19.80;35.10
62809;DHT22;48848;39.002;-94.584;2023-05-02T07:52:48;19.90;35.40
62809;DHT22;48848;39.002;-94.584;2023-05-02T07:55:14;19.80;35.10
62809;DHT22;48848;39.002;-94.584;2023-05-02T07:57:40;19.70;35.30
62809;DHT22;48848;39.002;-94.584;2023-05-02T08:00:06;19.70;35.20
62809;DHT22;48848;39.002;-94.584;2023-05-02T08:02:36;19.60;35.50
62809;DHT22;48848;39.002;-94.584;2023-05-02T08:05:02;19.50;37.10
62809;DHT22;48848;39.002;-94.584;2023-05-02T08:07:28;19.50;36.20
62809;DHT22;48848;39.002;-94.584;2023-05-02T08:09:54;19.50;36.20
62809;DHT22;48848;39.002;-94.584;2023-05-02T08:12:20;19.50;36.10
62809;DHT22;48848;39.002;-94.584;2023-05-02T08:14:45;19.30;36.40
62809;DHT22;48848;39.002;-94.584;2023-05-02T08:17:11;19.30;36.30
62809;DHT22;48848;39.002;-94.584;2023-05-02T08:19:37;19.20;36.50
62809;DHT22;48848;39.002;-94.584;2023-05-02T08:22:03;19.30;36.60
62809;DHT22;48848;39.002;-94.584;2023-05-02T08:24:29;19.20;36.60
62809;DHT22;48848;39.002;-94.584;2023-05-02T08:26:55;19.10;36.40
62809;DHT22;48848;39.002;-94.584;2023-05-02T08:29:22;19.00;36.70
62809;DHT22;48848;39.002;-94.584;2023-05-02T08:31:49;19.10;36.70
62809;DHT22;48848;39.002;-94.584;2023-05-02T08:34:15;19.00;36.20
62809;DHT22;48848;39.002;-94.584;2023-05-02T08:36:41;19.20;37.70
62809;DHT22;48848;39.002;-94.584;2023-05-02T08:39:07;19.00;36.70
62809;DHT22;48848;39.002;-94.584;2023-05-02T08:41:33;19.00;36.80
62809;DHT22;48848;39.002;-94.584;2023-05-02T08:44:01;19.00;36.70
62809;DHT22;48848;39.002;-94.584;2023-05-02T08:46:27;19.00;36.30
62809;DHT22;48848;39.002;-94.584;2023-05-02T08:48:53;19.00;36.80
62809;DHT22;48848;39.002;-94.584;2023-05-02T08:51:24;19.00;36.90
62809;DHT22;48848;39.002;-94.584;2023-05-02T08:53:51;18.90;36.30
62809;DHT22;48848;39.002;-94.584;2023-05-02T08:56:17;18.90;36.80
62809;DHT22;48848;39.002;-94.584;2023-05-02T08:58:42;18.90;37.00
62809;DHT22;48848;39.002;-94.584;2023-05-02T09:01:09;18.90;36.70
62809;DHT22;48848;39.002;-94.584;2023-05-02T09:03:36;18.80;36.50
62809;DHT22;48848;39.002;-94.584;2023-05-02T09:06:09;18.70;36.80
62809;DHT22;48848;39.002;-94.584;2023-05-02T09:08:37;18.80;37.10
62809;DHT22;48848;39.002;-94.584;2023-05-02T09:11:03;18.70;37.10
62809;DHT22;48848;39.002;-94.584;2023-05-02T09:15:56;18.60;37.30
62809;DHT22;48848;39.002;-94.584;2023-05-02T09:18:22;18.70;37.30
62809;DHT22;48848;39.002;-94.584;2023-05-02T09:20:49;18.70;37.20
62809;DHT22;48848;39.002;-94.584;2023-05-02T09:23:15;18.60;37.40
62809;DHT22;48848;39.002;-94.584;2023-05-02T09:25:41;18.70;37.60
62809;DHT22;48848;39.002;-94.584;2023-05-02T09:28:07;18.60;37.30
62809;DHT22;48848;39.002;-94.584;2023-05-02T09:30:33;18.60;37.30
62809;DHT22;48848;39.002;-94.584;2023-05-02T09:32:59;18.60;37.30
62809;DHT22;48848;39.002;-94.584;2023-05-02T09:35:25;18.60;37.40
62809;DHT22;48848;39.002;-94.584;2023-05-02T09:37:57;18.50;37.40
62809;DHT22;48848;39.002;-94.584;2023-05-02T09:40:23;18.50;37.40
62809;DHT22;48848;39.002;-94.584;2023-05-02T09:42:50;18.30;37.50
62809;DHT22;48848;39.002;-94.584;2023-05-02T09:45:20;18.40;37.60
62809;DHT22;48848;39.002;-94.584;2023-05-02T09:47:46;18.40;37.50
62809;DHT22;48848;39.002;-94.584;2023-05-02T09:50:30;18.20;37.90
62809;DHT22;48848;39.002;-94.584;2023-05-02T09:52:59;18.30;37.70
62809;DHT22;48848;39.002;-94.584;2023-05-02T09:55:26;18.30;37.80
62809;DHT22;48848;39.002;-94.584;2023-05-02T09:57:51;18.20;37.70
62809;DHT22;48848;39.002;-94.584;2023-05-02T10:00:17;18.20;38.00
62809;DHT22;48848;39.002;-94.584;2023-05-02T10:02:44;18.10;38.00
62809;DHT22;48848;39.002;-94.584;2023-05-02T10:05:14;18.30;37.90
62809;DHT22;48848;39.002;-94.584;2023-05-02T10:07:42;18.20;37.80
62809;DHT22;48848;39.002;-94.584;2023-05-02T10:10:13;18.20;37.90
62809;DHT22;48848;39.002;-94.584;2023-05-02T10:12:39;18.10;38.00
62809;DHT22;48848;39.002;-94.584;2023-05-02T10:15:06;18.00;37.80
62809;DHT22;48848;39.002;-94.584;2023-05-02T10:17:38;18.00;37.80
62809;DHT22;48848;39.002;-94.584;2023-05-02T10:20:06;18.00;37.90
62809;DHT22;48848;39.002;-94.584;2023-05-02T10:22:34;18.00;37.70
62809;DHT22;48848;39.002;-94.584;2023-05-02T10:25:01;18.00;38.00
62809;DHT22;48848;39.002;-94.584;2023-05-02T10:27:31;18.00;37.90
62809;DHT22;48848;39.002;-94.584;2023-05-02T10:29:57;18.00;38.00
62809;DHT22;48848;39.002;-94.584;2023-05-02T10:32:23;18.00;37.80
62809;DHT22;48848;39.002;-94.584;2023-05-02T10:34:51;17.90;38.00
62809;DHT22;48848;39.002;-94.584;2023-05-02T10:37:18;17.80;38.20
62809;DHT22;48848;39.002;-94.584;2023-05-02T10:39:44;17.80;38.30
62809;DHT22;48848;39.002;-94.584;2023-05-02T10:42:12;17.70;38.50
62809;DHT22;48848;39.002;-94.584;2023-05-02T10:44:39;17.70;38.40
62809;DHT22;48848;39.002;-94.584;2023-05-02T10:47:24;17.70;38.40
62809;DHT22;48848;39.002;-94.584;2023-05-02T10:49:55;17.70;38.60
62809;DHT22;48848;39.002;-94.584;2023-05-02T10:52:32;17.60;38.50
62809;DHT22;48848;39.002;-94.584;2023-05-02T10:55:18;17.70;38.40
62809;DHT22;48848;39.002;-94.584;2023-05-02T11:00:25;17.90;38.40
62809;DHT22;48848;39.002;-94.584;2023-05-02T11:02:52;18.70;37.10
62809;DHT22;48848;39.002;-94.584;2023-05-02T11:05:17;19.10;36.20
62809;DHT22;48848;39.002;-94.584;2023-05-02T11:07:43;19.50;35.50
62809;DHT22;48848;39.002;-94.584;2023-05-02T11:12:45;19.00;36.40
62809;DHT22;48848;39.002;-94.584;2023-05-02T11:15:12;18.60;37.10
62809;DHT22;48848;39.002;-94.584;2023-05-02T11:20:22;18.30;37.90
62809;DHT22;48848;39.002;-94.584;2023-05-02T11:22:49;18.10;38.30
62809;DHT22;48848;39.002;-94.584;2023-05-02T11:25:28;17.80;38.80
62809;DHT22;48848;39.002;-94.584;2023-05-02T11:27:54;17.70;39.10
62809;DHT22;48848;39.002;-94.584;2023-05-02T11:30:42;17.60;38.60
62809;DHT22;48848;39.002;-94.584;2023-05-02T11:35:36;17.40;39.60
62809;DHT22;48848;39.002;-94.584;2023-05-02T11:38:09;17.40;39.70
62809;DHT22;48848;39.002;-94.584;2023-05-02T11:40:36;17.40;39.70
62809;DHT22;48848;39.002;-94.584;2023-05-02T11:43:11;17.30;39.80
62809;DHT22;48848;39.002;-94.584;2023-05-02T11:45:37;17.20;39.60
62809;DHT22;48848;39.002;-94.584;2023-05-02T11:48:10;17.40;39.90
62809;DHT22;48848;39.002;-94.584;2023-05-02T11:50:44;18.10;38.70
62809;DHT22;48848;39.002;-94.584;2023-05-02T11:53:10;18.70;37.50
62809;DHT22;48848;39.002;-94.584;2023-05-02T11:55:43;18.60;36.90
62809;DHT22;48848;39.002;-94.584;2023-05-02T11:58:13;18.50;37.40
62809;DHT22;48848;39.002;-94.584;2023-05-02T12:00:39;18.20;37.60
62809;DHT22;48848;39.002;-94.584;2023-05-02T12:03:08;18.00;38.40
62809;DHT22;48848;39.002;-94.584;2023-05-02T12:05:43;17.80;38.00
62809;DHT22;48848;39.002;-94.584;2023-05-02T12:08:16;17.80;39.20
62809;DHT22;48848;39.002;-94.584;2023-05-02T12:10:43;17.70;38.90
62809;DHT22;48848;39.002;-94.584;2023-05-02T12:13:10;17.60;39.00
62809;DHT22;48848;39.002;-94.584;2023-05-02T12:15:36;17.50;39.00
62809;DHT22;48848;39.002;-94.584;2023-05-02T12:18:02;17.50;39.10
62809;DHT22;48848;39.002;-94.584;2023-05-02T12:20:28;17.40;39.20
62809;DHT22;48848;39.002;-94.584;2023-05-02T12:22:54;17.40;38.80
62809;DHT22;48848;39.002;-94.584;2023-05-02T12:25:20;17.30;39.80
62809;DHT22;48848;39.002;-94.584;2023-05-02T12:27:59;17.30;39.70
62809;DHT22;48848;39.002;-94.584;2023-05-02T12:30:28;17.30;39.10
62809;DHT22;48848;39.002;-94.584;2023-05-02T12:32:55;17.30;39.70
62809;DHT22;48848;39.002;-94.584;2023-05-02T12:35:22;17.20;39.90
62809;DHT22;48848;39.002;-94.584;2023-05-02T12:37:48;17.20;40.30
62809;DHT22;48848;39.002;-94.584;2023-05-02T12:40:15;17.60;39.90
62809;DHT22;48848;39.002;-94.584;2023-05-02T12:42:41;18.20;38.80
62809;DHT22;48848;39.002;-94.584;2023-05-02T12:45:17;18.80;37.40
62809;DHT22;48848;39.002;-94.584;2023-05-02T12:47:43;18.70;37.10
62809;DHT22;48848;39.002;-94.584;2023-05-02T12:50:10;18.50;38.00
62809;DHT22;48848;39.002;-94.584;2023-05-02T12:52:46;18.30;38.50
62809;DHT22;48848;39.002;-94.584;2023-05-02T12:55:23;18.10;39.10
62809;DHT22;48848;39.002;-94.584;2023-05-02T12:57:49;18.10;39.40
62809;DHT22;48848;39.002;-94.584;2023-05-02T13:00:17;18.00;39.00
62809;DHT22;48848;39.002;-94.584;2023-05-02T13:02:43;18.20;39.30
62809;DHT22;48848;39.002;-94.584;2023-05-02T13:05:18;18.40;38.80
62809;DHT22;48848;39.002;-94.584;2023-05-02T13:07:44;18.30;39.10
62809;DHT22;48848;39.002;-94.584;2023-05-02T13:10:12;18.40;38.30
62809;DHT22;48848;39.002;-94.584;2023-05-02T13:12:38;18.20;39.20
62809;DHT22;48848;39.002;-94.584;2023-05-02T13:15:04;18.40;39.20
62809;DHT22;48848;39.002;-94.584;2023-05-02T13:17:31;18.40;38.80
62809;DHT22;48848;39.002;-94.584;2023-05-02T13:19:58;18.50;38.90
62809;DHT22;48848;39.002;-94.584;2023-05-02T13:22:24;18.60;38.30
62809;DHT22;48848;39.002;-94.584;2023-05-02T13:24:51;18.40;37.80
62809;DHT22;48848;39.002;-94.584;2023-05-02T13:27:17;18.50;38.10
62809;DHT22;48848;39.002;-94.584;2023-05-02T13:29:46;18.50;38.30
62809;DHT22;48848;39.002;-94.584;2023-05-02T13:32:13;18.60;38.30
62809;DHT22;48848;39.002;-94.584;2023-05-02T13:34:39;18.60;37.40
62809;DHT22;48848;39.002;-94.584;2023-05-02T13:37:05;18.60;37.70
62809;DHT22;48848;39.002;-94.584;2023-05-02T13:39:30;18.50;37.80
62809;DHT22;48848;39.002;-94.584;2023-05-02T13:41:56;18.60;37.50
62809;DHT22;48848;39.002;-94.584;2023-05-02T13:44:22;18.60;38.30
62809;DHT22;48848;39.002;-94.584;2023-05-02T13:46:48;18.70;38.40
62809;DHT22;48848;39.002;-94.584;2023-05-02T13:49:14;18.50;37.60
62809;DHT22;48848;39.002;-94.584;2023-05-02T13:51:40;18.50;37.80
62809;DHT22;48848;39.002;-94.584;2023-05-02T13:54:05;18.50;36.90
62809;DHT22;48848;39.002;-94.584;2023-05-02T13:56:31;18.50;37.30
62809;DHT22;48848;39.002;-94.584;2023-05-02T13:58:57;18.50;37.30
62809;DHT22;48848;39.002;-94.584;2023-05-02T14:01:23;18.20;37.20
62809;DHT22;48848;39.002;-94.584;2023-05-02T14:03:51;18.20;38.70
62809;DHT22;48848;39.002;-94.584;2023-05-02T14:06:17;18.40;37.70
62809;DHT22;48848;39.002;-94.584;2023-05-02T14:08:42;18.70;37.00
62809;DHT22;48848;39.002;-94.584;2023-05-02T14:11:09;18.70;37.40
62809;DHT22;48848;39.002;-94.584;2023-05-02T14:13:35;18.60;37.10
62809;DHT22;48848;39.002;-94.584;2023-05-02T14:16:01;18.70;36.70
62809;DHT22;48848;39.002;-94.584;2023-05-02T14:18:27;18.60;36.50
62809;DHT22;48848;39.002;-94.584;2023-05-02T14:20:53;18.70;36.80
62809;DHT22;48848;39.002;-94.584;2023-05-02T14:23:20;18.70;36.90
62809;DHT22;48848;39.002;-94.584;2023-05-02T14:25:46;18.80;36.40
62809;DHT22;48848;39.002;-94.584;2023-05-02T14:28:12;18.80;36.40
62809;DHT22;48848;39.002;-94.584;2023-05-02T14:30:38;18.80;36.50
62809;DHT22;48848;39.002;-94.584;2023-05-02T14:33:06;18.80;36.60
62809;DHT22;48848;39.002;-94.584;2023-05-02T14:35:31;18.90;36.30
62809;DHT22;48848;39.002;-94.584;2023-05-02T14:37:57;18.80;35.70
62809;DHT22;48848;39.002;-94.584;2023-05-02T14:40:23;18.90;36.10
62809;DHT22;48848;39.002;-94.584;2023-05-02T14:42:49;18.80;35.60
62809;DHT22;48848;39.002;-94.584;2023-05-02T14:45:15;18.90;35.40
62809;DHT22;48848;39.002;-94.584;2023-05-02T14:47:41;18.90;36.70
62809;DHT22;48848;39.002;-94.584;2023-05-02T14:50:06;18.90;35.90
62809;DHT22;48848;39.002;-94.584;2023-05-02T14:52:32;18.90;35.90
62809;DHT22;48848;39.002;-94.584;2023-05-02T14:54:59;19.00;35.80
62809;DHT22;48848;39.002;-94.584;2023-05-02T14:57:25;19.00;35.50
62809;DHT22;48848;39.002;-94.584;2023-05-02T14:59:51;19.00;35.70
62809;DHT22;48848;39.002;-94.584;2023-05-02T15:02:17;19.00;35.50
62809;DHT22;48848;39.002;-94.584;2023-05-02T15:04:43;19.00;35.30
62809;DHT22;48848;39.002;-94.584;2023-05-02T15:07:09;19.00;35.20
62809;DHT22;48848;39.002;-94.584;2023-05-02T15:09:35;19.00;35.20
62809;DHT22;48848;39.002;-94.584;2023-05-02T15:12:01;19.00;35.00
62809;DHT22;48848;39.002;-94.584;2023-05-02T15:14:27;19.10;35.00
62809;DHT22;48848;39.002;-94.584;2023-05-02T15:16:53;19.00;35.90
62809;DHT22;48848;39.002;-94.584;2023-05-02T15:19:19;19.00;36.90
62809;DHT22;48848;39.002;-94.584;2023-05-02T15:21:49;18.90;37.10
62809;DHT22;48848;39.002;-94.584;2023-05-02T15:24:17;18.90;35.70
62809;DHT22;48848;39.002;-94.584;2023-05-02T15:26:43;18.90;35.90
62809;DHT22;48848;39.002;-94.584;2023-05-02T15:29:10;18.90;35.90